createdAt,value
2018-09-22T00:00:08.277Z,10.00
2018-09-22T00:02:36.801Z,10.07
2018-09-22T00:05:05.352Z,10.08
2018-09-22T00:07:33.901Z,10.00
2018-09-22T00:12:52.610Z,10.08
2018-09-22T00:15:21.153Z,10.07
2018-09-22T00:17:49.638Z,10.02
2018-09-22T00:20:18.178Z,9.95
2018-09-22T00:22:46.834Z,9.95
2018-09-22T00:25:15.346Z,10.00
2018-09-22T00:27:43.886Z,10.07
2018-09-22T00:30:12.407Z,10.10
2018-09-22T00:32:40.911Z,10.17
2018-09-22T00:35:09.436Z,10.26
2018-09-22T00:37:37.965Z,10.31
2018-09-22T00:40:06.561Z,10.27
2018-09-22T00:42:35.089Z,10.27
2018-09-22T00:45:03.706Z,10.28
2018-09-22T00:47:32.265Z,10.18
2018-09-22T00:50:00.824Z,10.04
2018-09-22T00:52:29.419Z,10.02
2018-09-22T00:54:57.941Z,10.04
2018-09-22T00:57:26.461Z,10.08
2018-09-22T00:59:55.000Z,10.00
2018-09-22T01:02:23.551Z,9.95
2018-09-22T01:04:52.039Z,9.98
2018-09-22T01:07:20.664Z,10.02
2018-09-22T01:09:49.191Z,10.09
2018-09-22T01:12:17.713Z,10.18
2018-09-22T01:14:46.234Z,10.23
2018-09-22T01:17:14.759Z,10.36
2018-09-22T01:19:43.342Z,10.42
2018-09-22T01:22:11.846Z,10.36
2018-09-22T01:24:40.457Z,10.32
2018-09-22T01:27:08.990Z,10.32
2018-09-22T01:29:37.467Z,10.35
2018-09-22T01:32:06.140Z,10.41
2018-09-22T01:34:34.747Z,10.53
2018-09-22T01:37:09.704Z,10.59
2018-09-22T01:39:38.169Z,10.62
2018-09-22T01:42:06.799Z,10.62
2018-09-22T01:44:35.330Z,10.64
2018-09-22T01:47:03.914Z,10.69
2018-09-22T01:49:32.467Z,10.75
2018-09-22T01:52:00.946Z,10.78
2018-09-22T01:54:29.529Z,10.75
2018-09-22T01:56:57.989Z,10.71
2018-09-22T01:59:26.528Z,10.74
2018-09-22T02:01:55.569Z,10.74
2018-09-22T02:04:24.126Z,10.79
2018-09-22T02:06:52.723Z,10.69
2018-09-22T02:09:21.231Z,10.64
2018-09-22T02:11:49.795Z,10.58
2018-09-22T02:14:18.322Z,10.56
2018-09-22T02:16:46.797Z,10.58
2018-09-22T02:19:15.317Z,10.59
2018-09-22T02:21:43.813Z,10.55
2018-09-22T02:24:12.309Z,10.48
2018-09-22T02:26:40.854Z,10.37
2018-09-22T02:29:09.373Z,10.26
2018-09-22T02:31:37.902Z,10.19
2018-09-22T02:34:06.409Z,10.13
2018-09-22T02:36:34.898Z,10.12
2018-09-22T02:39:04.034Z,10.15
2018-09-22T02:41:32.541Z,10.18
2018-09-22T02:44:01.088Z,10.05
2018-09-22T02:46:29.642Z,10.00
2018-09-22T02:48:58.154Z,9.88
2018-09-22T02:51:26.613Z,9.84
2018-09-22T02:53:55.234Z,9.86
2018-09-22T02:56:23.839Z,9.87
2018-09-22T02:58:52.323Z,9.98
2018-09-22T03:01:20.883Z,10.05
2018-09-22T03:03:49.405Z,10.04
2018-09-22T03:06:17.917Z,9.84
2018-09-22T03:08:46.496Z,9.76
2018-09-22T03:11:14.979Z,9.70
2018-09-22T03:13:43.468Z,9.67
2018-09-22T03:16:11.933Z,9.71
2018-09-22T03:18:40.904Z,9.69
2018-09-22T03:21:09.445Z,9.73
2018-09-22T03:23:37.959Z,9.74
2018-09-22T03:26:13.100Z,9.83
2018-09-22T03:28:41.566Z,9.87
2018-09-22T03:31:10.573Z,9.84
2018-09-22T03:33:39.210Z,9.78
2018-09-22T03:36:07.762Z,9.59
2018-09-22T03:38:36.258Z,9.63
2018-09-22T03:41:05.174Z,9.52
2018-09-22T03:43:33.653Z,9.52
2018-09-22T03:46:02.157Z,9.50
2018-09-22T03:48:31.051Z,9.43
2018-09-22T03:50:59.612Z,9.42
2018-09-22T03:53:28.163Z,9.44
2018-09-22T03:55:57.010Z,9.35
2018-09-22T03:58:25.583Z,9.34
2018-09-22T04:00:56.970Z,9.25
2018-09-22T04:03:25.615Z,9.29
2018-09-22T04:05:54.190Z,9.32
2018-09-22T04:08:22.722Z,9.35
2018-09-22T04:10:51.205Z,9.41
2018-09-22T04:13:19.741Z,9.45
2018-09-22T04:15:48.269Z,9.36
2018-09-22T04:18:16.761Z,9.40
2018-09-22T04:20:45.298Z,9.35
2018-09-22T04:23:13.883Z,9.36
2018-09-22T04:25:43.297Z,9.32
2018-09-22T04:28:11.794Z,9.32
2018-09-22T04:30:42.751Z,9.23
2018-09-22T04:35:56.600Z,9.31
2018-09-22T04:38:25.200Z,9.29
2018-09-22T04:40:53.766Z,9.35
2018-09-22T04:43:22.330Z,9.36
2018-09-22T04:45:53.675Z,9.50
2018-09-22T04:48:22.810Z,9.66
2018-09-22T04:50:51.324Z,9.69
2018-09-22T04:53:19.900Z,9.61
2018-09-22T04:55:48.993Z,9.55
2018-09-22T04:58:19.311Z,9.55
2018-09-22T05:00:48.399Z,9.49
2018-09-22T05:03:16.898Z,9.47
2018-09-22T05:05:45.409Z,9.50
2018-09-22T05:08:13.982Z,9.52
2018-09-22T05:10:42.615Z,9.49
2018-09-22T05:13:12.405Z,9.49
2018-09-22T05:15:41.351Z,9.46
2018-09-22T05:18:09.920Z,9.45
2018-09-22T05:20:38.525Z,9.50
2018-09-22T05:23:07.659Z,9.52
2018-09-22T05:25:36.178Z,9.51
2018-09-22T05:28:05.538Z,9.56
2018-09-22T05:30:34.208Z,9.58
2018-09-22T05:33:02.745Z,9.62
2018-09-22T05:35:32.552Z,9.68
2018-09-22T05:38:01.041Z,9.79
2018-09-22T05:40:29.521Z,9.83
2018-09-22T05:42:58.065Z,9.79
2018-09-22T05:45:26.559Z,9.87
2018-09-22T05:47:55.157Z,9.94
2018-09-22T05:50:23.819Z,10.00
2018-09-22T05:52:52.322Z,10.05
2018-09-22T05:55:20.906Z,10.05
2018-09-22T05:57:49.474Z,10.08
2018-09-22T06:00:18.881Z,10.21
2018-09-22T06:02:48.034Z,10.23
2018-09-22T06:05:16.557Z,10.13
2018-09-22T06:07:45.070Z,10.22
2018-09-22T06:10:13.537Z,10.25
2018-09-22T06:12:42.370Z,10.20
2018-09-22T06:15:10.970Z,10.27
2018-09-22T06:17:39.593Z,10.31
2018-09-22T06:20:08.141Z,10.42
2018-09-22T06:22:36.694Z,10.42
2018-09-22T06:25:05.701Z,10.49
2018-09-22T06:27:34.195Z,10.54
2018-09-22T06:30:03.438Z,10.61
2018-09-22T06:32:31.949Z,10.63
2018-09-22T06:35:00.439Z,10.67
2018-09-22T06:37:28.995Z,10.76
2018-09-22T06:39:58.070Z,10.78
2018-09-22T06:42:26.554Z,10.90
2018-09-22T06:44:55.193Z,10.93
2018-09-22T06:47:24.702Z,11.05
2018-09-22T06:49:53.601Z,11.14
2018-09-22T06:52:22.354Z,11.19
2018-09-22T06:54:51.187Z,11.23
2018-09-22T06:57:19.677Z,11.28
2018-09-22T06:59:48.225Z,11.35
2018-09-22T07:02:16.754Z,11.44
2018-09-22T07:04:45.263Z,11.54
2018-09-22T07:07:14.578Z,11.56
2018-09-22T07:09:43.117Z,11.70
2018-09-22T07:12:11.604Z,11.77
2018-09-22T07:14:40.120Z,11.84
2018-09-22T07:17:08.626Z,11.94
2018-09-22T07:19:37.757Z,12.03
2018-09-22T07:22:11.553Z,12.26
2018-09-22T07:24:40.901Z,12.32
2018-09-22T07:27:09.429Z,12.39
2018-09-22T07:29:37.885Z,12.50
2018-09-22T07:32:06.415Z,12.66
2018-09-22T07:34:34.946Z,12.59
2018-09-22T07:37:03.444Z,12.78
2018-09-22T07:39:31.948Z,12.89
2018-09-22T07:42:00.497Z,12.99
2018-09-22T07:44:29.058Z,13.09
2018-09-22T07:46:57.574Z,13.09
2018-09-22T07:49:26.139Z,13.17
2018-09-22T07:51:54.630Z,13.04
2018-09-22T07:54:23.171Z,13.27
2018-09-22T07:56:51.725Z,13.24
2018-09-22T07:59:21.529Z,13.27
2018-09-22T08:01:50.042Z,13.13
2018-09-22T08:04:18.576Z,13.16
2018-09-22T08:06:47.157Z,13.18
2018-09-22T08:09:15.662Z,13.23
2018-09-22T08:11:44.254Z,13.27
2018-09-22T08:14:12.927Z,13.58
2018-09-22T08:16:41.425Z,13.84
2018-09-22T08:19:09.942Z,14.07
2018-09-22T08:21:38.443Z,14.14
2018-09-22T08:24:07.278Z,14.28
2018-09-22T08:26:36.104Z,14.28
2018-09-22T08:29:04.922Z,14.30
2018-09-22T08:31:33.894Z,14.55
2018-09-22T08:34:02.470Z,14.77
2018-09-22T08:36:31.116Z,14.84
2018-09-22T08:38:59.497Z,14.99
2018-09-22T08:41:28.045Z,14.91
2018-09-22T08:43:56.581Z,15.06
2018-09-22T08:46:25.162Z,15.23
2018-09-22T08:48:54.377Z,15.36
2018-09-22T08:51:23.631Z,15.73
2018-09-22T08:53:52.146Z,15.41
2018-09-22T08:56:20.609Z,15.30
2018-09-22T08:58:49.098Z,14.94
2018-09-22T09:01:17.654Z,15.16
2018-09-22T09:03:46.167Z,15.39
2018-09-22T09:06:14.703Z,15.38
2018-09-22T09:08:43.245Z,15.23
2018-09-22T09:11:12.226Z,15.18
2018-09-22T09:13:40.792Z,15.49
2018-09-22T09:16:09.313Z,15.44
2018-09-22T09:18:37.859Z,15.60
2018-09-22T09:21:06.348Z,15.55
2018-09-22T09:23:34.837Z,15.60
2018-09-22T09:26:03.341Z,15.57
2018-09-22T09:28:31.883Z,15.60
2018-09-22T09:31:00.639Z,15.71
2018-09-22T09:33:29.134Z,15.79
2018-09-22T09:35:57.697Z,15.76
2018-09-22T09:38:26.218Z,15.59
2018-09-22T09:40:54.737Z,15.68
2018-09-22T09:43:23.238Z,15.55
2018-09-22T09:45:51.782Z,15.16
2018-09-22T09:48:20.298Z,14.93
2018-09-22T09:50:49.103Z,14.60
2018-09-22T09:53:17.622Z,14.40
2018-09-22T09:55:46.101Z,14.32
2018-09-22T09:58:14.866Z,14.35
2018-09-22T10:00:46.478Z,14.30
2018-09-22T10:03:16.818Z,14.42
2018-09-22T10:05:45.886Z,14.51
2018-09-22T10:08:14.712Z,14.23
2018-09-22T10:10:43.383Z,14.13
2018-09-22T10:13:11.886Z,14.20
2018-09-22T10:15:40.388Z,14.07
2018-09-22T10:18:08.965Z,13.49
2018-09-22T10:20:37.482Z,13.28
2018-09-22T10:23:06.124Z,13.35
2018-09-22T10:25:34.602Z,13.50
2018-09-22T10:28:04.820Z,13.72
2018-09-22T10:30:33.331Z,14.02
2018-09-22T10:33:01.876Z,14.36
2018-09-22T10:35:30.364Z,14.61
2018-09-22T10:37:58.890Z,14.81
2018-09-22T10:40:27.382Z,14.81
2018-09-22T10:42:55.862Z,14.88
2018-09-22T10:45:24.389Z,14.79
2018-09-22T10:47:52.879Z,14.90
2018-09-22T10:50:21.394Z,15.00
2018-09-22T10:52:49.939Z,15.16
2018-09-22T10:55:19.219Z,14.99
2018-09-22T10:57:47.704Z,15.09
2018-09-22T11:00:16.629Z,15.20
2018-09-22T11:02:45.333Z,15.04
2018-09-22T11:05:13.806Z,14.91
2018-09-22T11:07:42.983Z,14.56
2018-09-22T11:10:12.218Z,14.66
2018-09-22T11:12:40.742Z,14.98
2018-09-22T11:15:09.367Z,14.95
2018-09-22T11:17:37.817Z,14.59
2018-09-22T11:20:06.757Z,14.25
2018-09-22T11:22:35.275Z,13.75
2018-09-22T11:25:03.855Z,14.10
2018-09-22T11:27:32.386Z,13.85
2018-09-22T11:30:00.884Z,12.79
2018-09-22T11:32:29.462Z,12.06
2018-09-22T11:34:57.955Z,11.24
2018-09-22T11:37:26.462Z,10.95
2018-09-22T11:39:54.977Z,10.74
2018-09-22T11:42:23.665Z,10.87
2018-09-22T11:44:52.222Z,11.13
2018-09-22T11:47:21.057Z,11.27
2018-09-22T11:49:50.161Z,11.45
2018-09-22T11:52:18.659Z,11.75
2018-09-22T11:54:47.289Z,11.97
2018-09-22T11:57:15.814Z,12.11
2018-09-22T11:59:44.291Z,12.25
2018-09-22T12:02:13.606Z,12.39
2018-09-22T12:04:42.666Z,12.37
2018-09-22T12:07:11.805Z,12.68
2018-09-22T12:09:40.311Z,12.96
2018-09-22T12:12:08.898Z,13.19
2018-09-22T12:14:37.366Z,13.46
2018-09-22T12:17:06.603Z,13.61
2018-09-22T12:19:35.126Z,13.92
2018-09-22T12:22:03.910Z,14.21
2018-09-22T12:24:32.421Z,14.53
2018-09-22T12:27:00.908Z,14.74
2018-09-22T12:29:30.064Z,14.94
2018-09-22T12:31:58.721Z,14.94
2018-09-22T12:34:27.289Z,15.23
2018-09-22T12:36:55.781Z,15.51
2018-09-22T12:39:24.335Z,15.67
2018-09-22T12:41:52.852Z,15.83
2018-09-22T12:44:21.367Z,16.09
2018-09-22T12:46:49.991Z,16.05
2018-09-22T12:49:18.646Z,15.88
2018-09-22T12:51:47.186Z,15.61
2018-09-22T12:54:15.702Z,15.70
2018-09-22T12:56:44.413Z,15.81
2018-09-22T12:59:13.741Z,15.60
2018-09-22T13:01:42.309Z,15.48
2018-09-22T13:04:13.025Z,15.58
2018-09-22T13:06:41.535Z,15.57
2018-09-22T13:09:10.875Z,15.71
2018-09-22T13:11:39.510Z,15.71
2018-09-22T13:14:08.710Z,15.80
2018-09-22T13:16:38.641Z,15.66
2018-09-22T13:19:07.194Z,15.54
2018-09-22T13:21:35.713Z,15.25
2018-09-22T13:24:04.261Z,15.38
2018-09-22T13:26:32.769Z,15.31
2018-09-22T13:29:01.387Z,15.08
2018-09-22T13:31:31.309Z,14.97
2018-09-22T13:34:00.728Z,14.75
2018-09-22T13:36:29.808Z,14.56
2018-09-22T13:38:58.301Z,14.28
2018-09-22T13:41:26.807Z,14.22
2018-09-22T13:43:56.516Z,13.67
2018-09-22T13:46:25.755Z,13.30
2018-09-22T13:48:54.891Z,12.75
2018-09-22T13:51:23.407Z,12.55
2018-09-22T13:53:51.954Z,12.50
2018-09-22T13:56:21.248Z,12.53
2018-09-22T13:58:49.729Z,12.54
2018-09-22T14:01:19.079Z,12.40
2018-09-22T14:03:47.635Z,12.31
2018-09-22T14:06:33.791Z,12.32
2018-09-22T14:09:02.327Z,12.38
2018-09-22T14:11:30.830Z,12.53
2018-09-22T14:13:59.923Z,12.59
2018-09-22T14:16:28.464Z,12.64
2018-09-22T14:18:57.590Z,12.46
2018-09-22T14:21:26.149Z,12.41
2018-09-22T14:23:54.634Z,12.54
2018-09-22T14:26:23.197Z,12.41
2018-09-22T14:28:51.695Z,12.13
2018-09-22T14:31:20.177Z,11.96
2018-09-22T14:33:48.837Z,11.89
2018-09-22T14:36:17.366Z,11.93
2018-09-22T14:38:45.883Z,11.79
2018-09-22T14:41:14.466Z,11.81
2018-09-22T14:43:42.950Z,11.82
2018-09-22T14:46:11.490Z,11.91
2018-09-22T14:48:40.543Z,11.97
2018-09-22T14:51:09.021Z,12.00
2018-09-22T14:53:37.638Z,12.05
2018-09-22T14:56:10.293Z,11.89
2018-09-22T14:58:38.837Z,11.94
2018-09-22T15:01:07.402Z,12.06
2018-09-22T15:03:36.231Z,12.08
2018-09-22T15:06:04.733Z,12.06
2018-09-22T15:08:33.757Z,12.11
2018-09-22T15:11:02.305Z,11.96
2018-09-22T15:13:31.422Z,12.07
2018-09-22T15:15:59.930Z,12.08
2018-09-22T15:18:28.542Z,12.09
2018-09-22T15:20:57.053Z,12.03
2018-09-22T15:23:25.553Z,12.00
2018-09-22T15:25:54.194Z,11.98
2018-09-22T15:28:22.681Z,12.00
2018-09-22T15:30:51.230Z,12.01
2018-09-22T15:33:19.701Z,12.10
2018-09-22T15:35:48.238Z,12.12
2018-09-22T15:38:16.897Z,12.08
2018-09-22T15:40:45.686Z,12.00
2018-09-22T15:43:14.186Z,11.95
2018-09-22T15:45:42.675Z,11.82
2018-09-22T15:48:11.186Z,11.76
2018-09-22T15:50:39.682Z,11.84
2018-09-22T15:53:08.208Z,11.85
2018-09-22T15:55:36.733Z,11.87
2018-09-22T15:58:05.438Z,11.88
2018-09-22T16:00:33.967Z,11.79
2018-09-22T16:03:02.472Z,11.85
2018-09-22T16:05:31.037Z,11.87
2018-09-22T16:07:59.580Z,11.90
2018-09-22T16:10:28.094Z,11.85
2018-09-22T16:12:56.593Z,11.89
2018-09-22T16:15:25.114Z,11.73
2018-09-22T16:17:53.662Z,11.83
2018-09-22T16:20:22.646Z,11.88
2018-09-22T16:22:51.130Z,11.87
2018-09-22T16:25:20.178Z,11.87
2018-09-22T16:27:48.701Z,11.86
2018-09-22T16:30:17.185Z,11.78
2018-09-22T16:32:45.709Z,11.79
2018-09-22T16:35:14.285Z,11.80
2018-09-22T16:37:43.085Z,11.84
2018-09-22T16:40:11.547Z,11.76
2018-09-22T16:42:40.665Z,11.80
2018-09-22T16:45:09.165Z,11.70
2018-09-22T16:47:37.641Z,11.67
2018-09-22T16:50:06.240Z,11.69
2018-09-22T16:52:34.702Z,11.60
2018-09-22T16:55:03.238Z,11.56
2018-09-22T16:57:31.708Z,11.59
2018-09-22T17:00:00.191Z,11.51
2018-09-22T17:02:28.867Z,11.39
2018-09-22T17:04:57.385Z,11.36
2018-09-22T17:07:25.935Z,11.33
2018-09-22T17:09:54.472Z,11.34
2018-09-22T17:12:23.011Z,11.35
2018-09-22T17:14:51.497Z,11.33
2018-09-22T17:17:20.026Z,11.32
2018-09-22T17:19:48.886Z,11.24
2018-09-22T17:22:17.415Z,11.35
2018-09-22T17:24:45.918Z,11.28
2018-09-22T17:27:14.481Z,11.25
2018-09-22T17:29:42.959Z,11.17
2018-09-22T17:32:12.229Z,11.20
2018-09-22T17:34:40.751Z,11.26
2018-09-22T17:37:09.365Z,11.21
2018-09-22T17:39:37.897Z,11.25
2018-09-22T17:42:06.527Z,11.30
2018-09-22T17:44:35.065Z,11.17
2018-09-22T17:47:03.571Z,11.19
2018-09-22T17:49:32.137Z,11.16
2018-09-22T17:52:00.602Z,11.16
2018-09-22T17:54:29.092Z,11.16
2018-09-22T17:56:58.113Z,11.13
2018-09-22T17:59:26.676Z,11.14
2018-09-22T18:01:55.166Z,11.05
2018-09-22T18:04:23.674Z,11.06
2018-09-22T18:06:52.215Z,11.07
2018-09-22T18:09:20.736Z,11.02
2018-09-22T18:11:49.286Z,11.12
2018-09-22T18:14:17.785Z,11.07
2018-09-22T18:16:46.719Z,11.11
2018-09-22T18:19:15.169Z,11.06
2018-09-22T18:21:43.697Z,11.13
2018-09-22T18:24:12.178Z,11.06
2018-09-22T18:26:40.685Z,11.06
2018-09-22T18:29:09.237Z,11.04
2018-09-22T18:31:37.784Z,11.04
2018-09-22T18:34:06.608Z,11.10
2018-09-22T18:36:35.042Z,11.18
2018-09-22T18:39:04.098Z,11.12
2018-09-22T18:41:33.102Z,11.10
2018-09-22T18:44:01.578Z,11.10
2018-09-22T18:46:30.121Z,11.15
2018-09-22T18:48:58.966Z,11.11
2018-09-22T18:51:27.614Z,11.13
2018-09-22T18:53:56.208Z,11.10
2018-09-22T18:56:24.857Z,11.11
2018-09-22T18:58:53.388Z,11.11
2018-09-22T19:01:21.965Z,11.05
2018-09-22T19:03:50.488Z,11.11
2018-09-22T19:06:19.259Z,11.09
2018-09-22T19:08:47.766Z,11.11
2018-09-22T19:11:16.278Z,11.12
2018-09-22T19:13:51.948Z,11.01
2018-09-22T19:16:38.515Z,11.04
2018-09-22T19:19:13.317Z,11.10
2018-09-22T19:21:45.995Z,11.09
2018-09-22T19:24:20.682Z,11.14
2018-09-22T19:26:52.660Z,11.13
2018-09-22T19:29:25.231Z,11.12
2018-09-22T19:31:56.965Z,11.23
2018-09-22T19:34:29.229Z,11.28
2018-09-22T19:37:04.774Z,11.27
2018-09-22T19:39:37.153Z,11.23
2018-09-22T19:44:13.919Z,11.23
2018-09-22T19:46:47.999Z,11.15
2018-09-22T19:49:20.309Z,11.13
2018-09-22T19:51:52.769Z,11.12
2018-09-22T19:54:21.366Z,11.05
2018-09-22T19:56:49.885Z,11.02
2018-09-22T19:59:18.734Z,10.93
2018-09-22T20:01:48.234Z,10.94
2018-09-22T20:04:16.730Z,11.04
2018-09-22T20:06:45.330Z,11.06
2018-09-22T20:09:14.624Z,11.05
2018-09-22T20:11:43.200Z,11.01
2018-09-22T20:14:11.787Z,11.05
2018-09-22T20:16:40.302Z,11.11
2018-09-22T20:19:08.853Z,11.06
2018-09-22T20:21:37.338Z,11.04
2018-09-22T20:24:06.055Z,11.03
2018-09-22T20:26:34.523Z,11.04
2018-09-22T20:29:04.156Z,11.05
2018-09-22T20:31:32.653Z,11.03
2018-09-22T20:34:01.157Z,11.04
2018-09-22T20:36:29.742Z,11.09
2018-09-22T20:38:58.297Z,11.10
2018-09-22T20:41:27.086Z,11.03
2018-09-22T20:43:55.593Z,11.01
2018-09-22T20:46:24.073Z,11.09
2018-09-22T20:48:52.594Z,11.12
2018-09-22T20:51:21.101Z,11.12
2018-09-22T20:53:49.587Z,11.09
2018-09-22T20:56:18.120Z,11.07
2018-09-22T20:58:46.670Z,11.07
2018-09-22T21:01:15.148Z,11.05
2018-09-22T21:03:43.637Z,11.00
2018-09-22T21:06:12.458Z,11.02
2018-09-22T21:08:41.874Z,10.98
2018-09-22T21:11:10.381Z,10.95
2018-09-22T21:13:38.973Z,10.99
2018-09-22T21:16:07.565Z,10.92
2018-09-22T21:18:36.095Z,10.92
2018-09-22T21:21:04.704Z,10.92
2018-09-22T21:23:33.218Z,10.91
2018-09-22T21:26:01.710Z,10.88
2018-09-22T21:28:30.378Z,10.87
2018-09-22T21:30:58.879Z,10.85
2018-09-22T21:33:27.392Z,10.84
2018-09-22T21:35:55.952Z,10.87
2018-09-22T21:38:24.469Z,10.89
2018-09-22T21:40:53.009Z,10.90
2018-09-22T21:43:21.578Z,10.97
2018-09-22T21:45:50.162Z,10.97
2018-09-22T21:48:18.733Z,10.93
2018-09-22T21:50:47.334Z,10.87
2018-09-22T21:53:15.827Z,10.88
2018-09-22T21:55:44.364Z,10.88
2018-09-22T21:58:12.866Z,10.89
2018-09-22T22:00:41.542Z,10.88
2018-09-22T22:03:10.048Z,10.88
2018-09-22T22:05:38.541Z,10.96
2018-09-22T22:08:07.558Z,10.92
2018-09-22T22:10:36.093Z,10.94
2018-09-22T22:13:04.632Z,11.02
2018-09-22T22:15:33.105Z,10.90
2018-09-22T22:18:02.430Z,10.95
2018-09-22T22:20:30.967Z,10.97
2018-09-22T22:22:59.461Z,10.94
2018-09-22T22:25:28.057Z,10.94
2018-09-22T22:27:56.581Z,10.89
2018-09-22T22:30:25.085Z,10.93
2018-09-22T22:32:54.214Z,10.94
2018-09-22T22:35:22.717Z,10.94
2018-09-22T22:37:51.570Z,10.94
2018-09-22T22:47:21.305Z,10.88
2018-09-22T22:49:49.818Z,10.92
2018-09-22T22:52:18.653Z,10.92
2018-09-22T22:54:47.184Z,10.95
2018-09-22T22:57:15.954Z,10.89
2018-09-22T22:59:44.548Z,10.94
2018-09-22T23:02:13.083Z,10.94
2018-09-22T23:04:41.652Z,10.95
2018-09-22T23:07:10.219Z,10.97
2018-09-22T23:09:38.810Z,10.98
2018-09-22T23:12:07.321Z,10.94
2018-09-22T23:14:35.837Z,10.90
2018-09-22T23:17:04.361Z,10.90
2018-09-22T23:19:32.910Z,10.91
2018-09-22T23:22:01.457Z,10.92
2018-09-22T23:24:30.297Z,10.90
2018-09-22T23:26:58.829Z,10.86
2018-09-22T23:29:27.377Z,10.90
2018-09-22T23:31:55.909Z,10.93
2018-09-22T23:34:24.462Z,10.87
2018-09-22T23:36:53.262Z,10.80
2018-09-22T23:39:28.385Z,10.82
2018-09-22T23:41:56.898Z,10.83
2018-09-22T23:44:25.425Z,10.89
2018-09-22T23:46:53.946Z,10.83
2018-09-22T23:49:22.465Z,10.85
2018-09-22T23:51:50.973Z,10.83
2018-09-22T23:54:19.492Z,10.84
2018-09-22T23:56:48.070Z,10.94
2018-09-22T23:59:16.621Z,10.91
